Time;durP1;ratioP1;P1;durP2;ratioP2;P2;SDS_P1;SDS_P2;PMS_P1;PMS_P2;Temp;Humidity;BMP_temperature;BMP_pressure;BME280_temperature;BME280_humidity;BME280_pressure;Samples;Min_cycle;Max_cycle;Signal;HPM_P1;HPM_P2
2021/04/03 09:13:19;;;;;;;10.08;6.20;;;;;;;4.54;79.53;99017.36;1793362;78;28117;-77
2021/04/03 09:15:49;;;;;;;10.88;5.67;;;;;;;4.56;79.63;99019.30;1769474;80;21147;-76
2021/04/03 09:18:17;;;;;;;7.65;4.45;;;;;;;4.61;78.82;99014.81;1753046;81;21189;-76
2021/04/03 09:20:49;;;;;;;8.93;5.35;;;;;;;4.67;78.54;99021.98;1753950;80;21151;-73
2021/04/03 09:23:23;;;;;;;7.95;4.50;;;;;;;4.70;78.03;99023.39;1746960;81;21155;-77
2021/04/03 09:26:03;;;;;;;6.60;4.00;;;;;;;4.74;77.88;99029.97;1768476;80;21583;-74
2021/04/03 09:28:40;;;;;;;6.75;3.95;;;;;;;4.75;77.61;99032.45;1754072;80;21135;-75
2021/04/03 09:31:09;;;;;;;7.47;4.40;;;;;;;4.79;76.40;99042.27;1737072;81;21552;-76
2021/04/03 09:33:47;;;;;;;7.42;4.10;;;;;;;4.75;76.35;99037.05;1749676;80;21147;-74
2021/04/03 09:36:19;;;;;;;7.87;4.28;;;;;;;4.75;76.69;99042.47;1745202;81;21210;-75
2021/04/03 09:38:47;;;;;;;7.22;3.83;;;;;;;4.75;76.27;99033.81;1746409;81;21253;-75
2021/04/03 09:41:30;;;;;;;6.95;4.03;;;;;;;4.81;76.01;99033.36;1744332;81;21790;-76
2021/04/03 09:43:58;;;;;;;8.55;4.10;;;;;;;4.85;75.41;99031.83;1748430;81;21273;-77
2021/04/03 09:46:28;;;;;;;5.95;3.55;;;;;;;4.90;76.05;99034.11;1748521;81;21295;-76
2021/04/03 09:48:57;;;;;;;7.33;3.60;;;;;;;4.99;75.29;99035.89;1734053;80;21152;-76
2021/04/03 09:51:25;;;;;;;7.53;3.85;;;;;;;5.10;75.48;99035.03;1737152;81;21133;-74
2021/04/03 09:53:54;;;;;;;8.83;4.05;;;;;;;5.18;74.71;99039.23;1765217;80;21128;-77
2021/04/03 09:56:22;;;;;;;8.57;3.90;;;;;;;5.27;75.03;99041.30;1735796;81;21531;-76
2021/04/03 09:58:53;;;;;;;6.65;3.35;;;;;;;5.38;74.08;99051.28;1737555;80;21143;-74
2021/04/03 10:01:21;;;;;;;6.87;3.67;;;;;;;5.52;73.16;99050.42;1768045;80;21587;-76
2021/04/03 10:03:49;;;;;;;7.80;4.00;;;;;;;5.62;72.88;99050.06;1709414;81;21661;-79
2021/04/03 10:06:17;;;;;;;8.13;4.03;;;;;;;5.76;73.00;99054.65;1753696;80;21556;-77
2021/04/03 10:08:46;;;;;;;7.08;3.98;;;;;;;5.85;72.07;99059.14;1752440;80;21144;-74
2021/04/03 10:11:15;;;;;;;7.30;3.05;;;;;;;5.91;71.46;99059.53;1725617;81;21274;-76
2021/04/03 10:13:45;;;;;;;6.67;3.47;;;;;;;5.95;71.64;99064.20;1747032;81;21244;-78
2021/04/03 10:16:13;;;;;;;5.75;3.30;;;;;;;6.05;71.96;99068.97;1727947;81;21220;-80
2021/04/03 10:18:42;;;;;;;5.97;3.08;;;;;;;6.17;72.35;99073.80;1739984;81;21105;-79
2021/04/03 10:21:11;;;;;;;5.65;2.90;;;;;;;6.21;70.91;99070.86;1751611;80;21192;-76
2021/04/03 10:23:39;;;;;;;7.80;3.33;;;;;;;6.21;70.29;99067.61;1741767;81;21143;-80
2021/04/03 10:26:07;;;;;;;11.15;3.50;;;;;;;6.25;71.37;99064.67;1739289;81;21232;-80
2021/04/03 10:28:35;;;;;;;5.00;2.70;;;;;;;6.35;71.47;99068.89;1740783;81;21172;-80
2021/04/03 10:31:03;;;;;;;6.00;2.85;;;;;;;6.40;69.37;99073.04;1748812;81;21148;-78
2021/04/03 10:33:32;;;;;;;8.05;3.12;;;;;;;6.45;68.20;99071.48;1750025;80;21223;-81
2021/04/03 10:36:00;;;;;;;6.37;2.65;;;;;;;6.44;66.37;99069.30;1740684;81;21109;-79
2021/04/03 10:38:28;;;;;;;5.53;2.72;;;;;;;6.50;67.20;99076.47;1738920;81;21198;-81
2021/04/03 10:40:57;;;;;;;5.22;2.55;;;;;;;6.57;64.46;99068.95;1750219;82;21125;-78
2021/04/03 10:43:27;;;;;;;5.78;2.75;;;;;;;6.64;63.70;99065.50;1760292;81;21218;-84
2021/04/03 10:45:55;;;;;;;5.47;2.30;;;;;;;6.72;63.14;99066.42;1753655;81;21157;-84
2021/04/03 10:48:24;;;;;;;4.87;2.47;;;;;;;6.82;62.35;99065.19;1748693;81;21207;-84
2021/04/03 10:50:53;;;;;;;5.28;2.72;;;;;;;6.90;61.93;99057.95;1748427;80;21203;-77
2021/04/03 10:53:21;;;;;;;6.20;2.60;;;;;;;6.98;62.70;99068.36;1736922;80;21175;-77
2021/04/03 10:55:49;;;;;;;6.85;2.27;;;;;;;7.01;60.49;99071.11;1740628;81;21570;-75
2021/04/03 10:58:17;;;;;;;6.72;2.65;;;;;;;7.01;60.69;99065.14;1753093;81;21487;-75
2021/04/03 11:00:47;;;;;;;5.30;2.67;;;;;;;7.04;61.00;99084.21;1753098;80;21100;-85
2021/04/03 11:03:16;;;;;;;5.45;2.45;;;;;;;7.04;61.55;99079.60;1735842;82;21100;-79
2021/04/03 11:05:44;;;;;;;6.05;2.85;;;;;;;7.04;62.15;99084.21;1733413;81;21140;-79
2021/04/03 11:08:12;;;;;;;6.00;2.95;;;;;;;7.05;62.04;99094.03;1754549;82;21187;-77
2021/04/03 11:10:40;;;;;;;6.50;2.92;;;;;;;7.04;62.54;99085.04;1724170;81;21155;-85
2021/04/03 11:13:09;;;;;;;8.00;2.90;;;;;;;7.05;62.60;99092.67;1725702;81;21149;-79
2021/04/03 11:15:37;;;;;;;6.05;3.00;;;;;;;7.07;61.69;99097.84;1752423;80;21543;-77
2021/04/03 11:18:05;;;;;;;6.85;2.90;;;;;;;7.07;62.00;99094.59;1747759;81;21133;-81
2021/04/03 11:20:34;;;;;;;8.90;2.87;;;;;;;7.15;62.18;99094.69;1743179;81;21687;-84
2021/04/03 11:23:02;;;;;;;7.50;3.00;;;;;;;7.24;61.80;99103.50;1751751;80;21651;-77
2021/04/03 11:25:30;;;;;;;6.67;2.70;;;;;;;7.31;61.31;99100.59;1727294;81;21176;-76
2021/04/03 11:27:58;;;;;;;5.22;2.80;;;;;;;7.32;61.00;99098.97;1740158;81;21239;-80
2021/04/03 11:30:26;;;;;;;6.53;3.20;;;;;;;7.30;60.41;99107.10;1751650;80;21152;-78
2021/04/03 11:32:54;;;;;;;;;;;;;;;7.22;60.46;99100.75;1771252;80;21548;-77
2021/04/03 11:35:23;;;;;;;7.40;3.10;;;;;;;7.14;60.84;99118.88;1752219;82;20188;-77
2021/04/03 11:37:50;;;;;;;6.42;3.58;;;;;;;7.07;60.89;99116.89;1752670;80;21108;-84
2021/04/03 11:40:19;;;;;;;7.42;3.37;;;;;;;7.01;60.86;99124.98;1752375;82;21136;-75
2021/04/03 11:42:52;;;;;;;7.85;3.05;;;;;;;6.95;61.09;99123.30;1722072;82;21116;-90
2021/04/03 11:45:19;;;;;;;6.60;3.30;;;;;;;6.90;61.11;99127.31;1742013;82;21112;-86
2021/04/03 11:47:48;;;;;;;8.10;3.10;;;;;;;6.87;61.15;99135.97;1724984;81;21129;-87
2021/04/03 11:50:17;;;;;;;7.72;3.50;;;;;;;6.84;61.01;99137.00;1749536;80;21630;-78
2021/04/03 11:52:44;;;;;;;7.20;3.70;;;;;;;6.82;61.04;99138.63;1730154;81;21248;-84
2021/04/03 11:55:16;;;;;;;6.33;3.10;;;;;;;6.81;61.91;99142.41;1753010;82;21418;-86
2021/04/03 11:57:44;;;;;;;8.38;2.95;;;;;;;6.84;61.63;99149.23;1753725;80;21579;-82
2021/04/03 12:00:14;;;;;;;7.95;3.00;;;;;;;6.87;60.88;99148.21;1755239;81;21199;-84
2021/04/03 12:02:42;;;;;;;6.42;3.05;;;;;;;6.92;60.81;99152.36;1752165;80;21183;-87
2021/04/03 12:05:11;;;;;;;6.65;3.10;;;;;;;6.99;60.80;99154.88;1744339;81;21151;-83
2021/04/03 12:07:42;;;;;;;5.22;2.75;;;;;;;7.07;59.54;99159.06;1738255;81;21658;-82
2021/04/03 12:10:17;;;;;;;7.37;2.62;;;;;;;7.15;59.39;99158.62;1739710;81;21231;-81
2021/04/03 12:12:45;;;;;;;5.72;2.62;;;;;;;7.20;58.50;99168.22;1749860;81;21167;-87
2021/04/03 12:15:15;;;;;;;6.00;2.72;;;;;;;7.23;58.69;99178.60;1743853;80;21160;-79
2021/04/03 12:17:45;;;;;;;8.30;2.95;;;;;;;7.27;58.02;99189.25;1731675;81;21263;-85
2021/04/03 12:20:15;;;;;;;;;;;;;;;7.27;57.76;99195.53;1748587;81;21195;-85
2021/04/03 12:22:45;;;;;;;6.05;2.33;;;;;;;7.27;58.07;99197.42;1749123;80;20169;-83
2021/04/03 12:25:13;;;;;;;6.53;3.25;;;;;;;7.32;57.40;99190.68;1759923;81;21129;-89
2021/04/03 12:27:41;;;;;;;4.87;2.40;;;;;;;7.38;57.25;99188.31;1752091;81;21112;-84
2021/04/03 12:30:10;;;;;;;6.30;2.30;;;;;;;7.43;56.32;99181.57;1749237;81;21105;-82
2021/04/03 12:32:39;;;;;;;6.47;2.40;;;;;;;7.51;55.94;99184.65;1761988;80;21124;-82
2021/04/03 12:35:08;;;;;;;6.87;2.67;;;;;;;7.63;55.58;99174.47;1754957;80;21627;-87
2021/04/03 12:37:36;;;;;;;6.20;2.47;;;;;;;7.75;54.95;99171.58;1739165;81;21141;-80
2021/04/03 12:40:05;;;;;;;5.47;2.58;;;;;;;7.83;54.54;99177.11;1738826;81;21172;-78
2021/04/03 12:42:33;;;;;;;6.70;2.40;;;;;;;7.88;54.34;99169.81;1726165;81;21169;-87
2021/04/03 12:45:01;;;;;;;5.70;2.58;;;;;;;7.93;53.60;99178.03;1736975;81;21270;-86
2021/04/03 12:47:29;;;;;;;4.65;2.10;;;;;;;7.92;52.84;99180.47;1736562;81;21160;-87
2021/04/03 12:49:57;;;;;;;8.00;2.43;;;;;;;7.92;53.07;99194.66;1747819;81;21699;-87
2021/04/03 12:52:25;;;;;;;6.03;2.50;;;;;;;7.88;53.66;99196.23;1769675;81;21207;-80
2021/04/03 12:54:54;;;;;;;6.78;2.33;;;;;;;7.86;53.22;99201.95;1749966;81;21187;-84
2021/04/03 12:57:22;;;;;;;6.65;2.45;;;;;;;7.87;54.07;99206.86;1739283;81;21157;-84
2021/04/03 12:59:50;;;;;;;8.68;3.12;;;;;;;7.90;54.67;99203.06;1723701;82;21176;-85
2021/04/03 13:02:19;;;;;;;7.62;2.60;;;;;;;8.00;55.11;99210.52;1764873;81;21128;-86
2021/04/03 13:04:47;;;;;;;5.90;2.50;;;;;;;8.09;53.79;99200.28;1754934;81;21201;-85
2021/04/03 13:07:15;;;;;;;6.62;2.67;;;;;;;8.26;53.37;99194.20;1744626;81;21570;-83
2021/04/03 13:09:43;;;;;;;6.65;2.72;;;;;;;8.68;51.87;99197.51;1715894;82;21207;-85
2021/04/03 13:12:11;;;;;;;;;;;;;;;8.99;49.94;99199.90;1752446;80;21167;-85
2021/04/03 13:14:41;;;;;;;8.25;2.55;;;;;;;8.90;50.49;99187.31;1710175;82;20487;-82
2021/04/03 13:17:09;;;;;;;6.40;2.77;;;;;;;8.90;50.49;99187.31;1729243;81;21188;-81
2021/04/03 13:19:39;;;;;;;4.72;2.50;;;;;;;8.84;51.21;99186.45;1727576;81;21219;-84
2021/04/03 13:22:07;;;;;;;5.30;2.35;;;;;;;8.73;50.56;99197.55;1717188;80;21171;-85
2021/04/03 13:24:36;;;;;;;6.42;3.02;;;;;;;8.67;50.69;99194.52;1747861;80;21176;-82
2021/04/03 13:27:05;;;;;;;5.42;2.35;;;;;;;9.08;49.76;99181.42;1728227;81;21678;-85
2021/04/03 13:29:33;;;;;;;4.70;2.58;;;;;;;9.10;48.82;99187.97;1766027;81;21235;-85
2021/04/03 13:32:03;;;;;;;6.87;3.47;;;;;;;9.02;48.99;99196.65;1730275;81;21121;-86
2021/04/03 13:34:31;;;;;;;4.95;2.52;;;;;;;9.65;48.44;99188.74;1717956;80;21124;-86
2021/04/03 13:37:02;;;;;;;5.97;2.42;;;;;;;10.41;45.97;99191.10;1740747;80;21278;-85
2021/04/03 13:39:31;;;;;;;7.33;2.70;;;;;;;10.81;44.45;99193.28;1748736;80;21135;-84
2021/04/03 13:41:59;;;;;;;5.92;2.58;;;;;;;11.14;44.55;99195.95;1734543;82;21157;-80
2021/04/03 13:44:27;;;;;;;4.75;2.45;;;;;;;11.61;42.83;99198.27;1734326;81;21172;-84
2021/04/03 13:46:55;;;;;;;7.47;2.98;;;;;;;11.62;42.69;99191.67;1729697;81;21149;-84
2021/04/03 13:49:27;;;;;;;5.47;2.50;;;;;;;11.60;43.24;99199.91;1737235;81;21501;-82
2021/04/03 13:51:55;;;;;;;;;;;;;;;11.84;42.33;99208.58;1737914;81;21193;-81
2021/04/03 13:54:23;;;;;;;;;;;;;;;11.99;40.46;99212.61;1737788;81;20202;-85
2021/04/03 13:56:52;;;;;;;6.40;2.27;;;;;;;11.76;40.66;99217.42;1726534;81;20188;-82
2021/04/03 14:04:16;;;;;;;5.85;2.70;;;;;;;10.65;42.46;99219.00;1805761;77;22135;-87
2021/04/03 14:06:45;;;;;;;8.13;2.90;;;;;;;10.27;42.73;99225.56;1751380;80;21156;-85
2021/04/03 14:09:13;;;;;;;7.00;3.27;;;;;;;10.00;43.87;99227.11;1724746;80;21175;-85
2021/04/03 14:11:42;;;;;;;6.72;2.95;;;;;;;9.78;44.39;99231.97;1756221;81;21132;-84
2021/04/03 14:14:12;;;;;;;6.62;3.42;;;;;;;9.61;44.75;99233.56;1725657;83;21140;-86
2021/04/03 14:16:40;;;;;;;8.18;3.85;;;;;;;9.50;44.76;99232.69;1665610;83;21216;-88
2021/04/03 14:19:13;;;;;;;8.25;3.90;;;;;;;9.32;45.54;99242.70;1716782;83;21474;-89
2021/04/03 14:21:41;;;;;;;6.80;3.87;;;;;;;9.18;45.94;99243.44;1680659;83;21743;-87
2021/04/03 14:24:11;;;;;;;11.93;3.92;;;;;;;9.05;46.37;99243.89;1682777;84;21214;-85
2021/04/03 14:26:38;;;;;;;8.65;4.40;;;;;;;8.89;47.48;99240.23;1686729;83;21170;-87
2021/04/03 14:29:08;;;;;;;7.42;3.50;;;;;;;8.79;47.33;99242.35;1702585;83;21170;-85
2021/04/03 14:31:41;;;;;;;11.30;4.10;;;;;;;8.73;47.21;99230.28;1689211;83;21167;-84
2021/04/03 14:34:08;;;;;;;7.30;3.62;;;;;;;8.68;47.44;99223.42;1688848;84;21186;-85
2021/04/03 14:36:37;;;;;;;13.55;4.70;;;;;;;8.65;48.02;99219.31;1694876;83;21272;-84
2021/04/03 14:39:06;;;;;;;;;;;;;;;8.62;47.79;99218.49;1704940;84;21255;-81
2021/04/03 14:41:36;;;;;;;10.00;3.47;;;;;;;8.57;47.64;99224.44;1684941;83;20232;-84
2021/04/03 14:44:08;;;;;;;10.58;4.90;;;;;;;8.44;47.17;99222.14;1684266;84;21208;-82
2021/04/03 14:46:35;;;;;;;7.08;3.70;;;;;;;8.35;46.52;99223.72;1684728;83;21194;-79
2021/04/03 14:49:03;;;;;;;8.50;3.20;;;;;;;8.35;46.52;99223.72;1685338;84;21153;-82
2021/04/03 14:51:31;;;;;;;7.90;4.10;;;;;;;8.30;47.52;99233.47;1653951;83;21149;-84
2021/04/03 14:53:59;;;;;;;7.83;3.33;;;;;;;8.36;46.87;99234.88;1685905;84;21176;-85
2021/04/03 14:56:28;;;;;;;7.03;3.58;;;;;;;8.97;45.27;99240.28;1697224;83;21195;-85
2021/04/03 14:58:58;;;;;;;7.22;3.72;;;;;;;9.40;44.83;99234.54;1701071;83;21779;-82
2021/04/03 15:01:25;;;;;;;8.08;4.22;;;;;;;9.73;43.56;99237.41;1709564;83;21200;-81
2021/04/03 15:03:53;;;;;;;9.50;3.80;;;;;;;10.16;42.90;99235.12;1701879;83;21287;-82
2021/04/03 15:06:21;;;;;;;12.55;3.60;;;;;;;10.63;41.32;99244.46;1699344;84;22275;-84
2021/04/03 15:08:52;;;;;;;8.50;4.15;;;;;;;10.57;41.83;99240.64;1701972;83;21255;-71
2021/04/03 15:11:20;;;;;;;7.47;3.67;;;;;;;10.23;42.03;99242.22;1701433;83;21279;-84
2021/04/03 15:13:48;;;;;;;11.12;4.33;;;;;;;9.85;42.44;99244.83;1693436;83;21210;-80
2021/04/03 15:16:16;;;;;;;13.28;5.28;;;;;;;9.47;43.07;99261.89;1686638;84;21626;-82
2021/04/03 15:18:44;;;;;;;8.65;4.72;;;;;;;9.19;44.10;99256.81;1699940;83;21141;-86
2021/04/03 15:21:14;;;;;;;10.90;4.70;;;;;;;8.97;44.52;99267.04;1722789;82;21132;-83
2021/04/03 15:23:44;;;;;;;10.48;5.10;;;;;;;8.81;45.00;99266.63;1689111;83;21184;-82
2021/04/03 15:26:13;;;;;;;8.60;5.20;;;;;;;8.53;46.07;99273.22;1670080;83;21700;-88
2021/04/03 15:28:44;;;;;;;11.65;5.87;;;;;;;8.53;46.07;99273.22;1684797;83;21346;-84
2021/04/03 15:31:12;;;;;;;10.25;4.62;;;;;;;8.40;46.53;99277.73;1684997;84;21742;-79
2021/04/03 15:33:39;;;;;;;11.55;6.50;;;;;;;8.30;46.49;99272.17;1685277;84;21191;-81
2021/04/03 15:36:07;;;;;;;10.08;5.20;;;;;;;8.21;47.15;99273.16;1694869;83;21247;-81
2021/04/03 15:38:36;;;;;;;12.53;5.33;;;;;;;8.13;47.33;99279.60;1679843;84;21212;-83
2021/04/03 15:41:04;;;;;;;9.63;5.30;;;;;;;8.05;47.76;99286.87;1690833;83;21265;-84
2021/04/03 15:43:33;;;;;;;9.98;5.15;;;;;;;7.97;48.14;99293.59;1688669;84;21287;-84
2021/04/03 15:46:01;;;;;;;10.80;5.53;;;;;;;7.89;48.11;99294.06;1692738;83;21198;-80
2021/04/03 15:48:29;;;;;;;10.10;5.12;;;;;;;7.82;48.81;99302.16;1692881;83;21144;-86
2021/04/03 15:50:58;;;;;;;;;;;;;;;7.73;49.11;99305.84;1688798;83;21163;-85
2021/04/03 15:53:27;;;;;;;9.68;4.87;;;;;;;7.67;49.34;99310.93;1660664;84;20229;-81
2021/04/03 15:55:55;;;;;;;10.88;5.10;;;;;;;7.62;49.25;99314.95;1649471;84;21776;-83
2021/04/03 15:58:24;;;;;;;;;;;;;;;7.57;49.54;99315.71;1665720;85;21188;-81
2021/04/03 16:00:51;;;;;;;9.37;5.37;;;;;;;7.53;49.63;99315.94;1686363;83;20183;-78
2021/04/03 16:03:19;;;;;;;9.10;4.90;;;;;;;7.48;50.12;99316.40;1693650;84;21141;-79
2021/04/03 16:05:48;;;;;;;;;;;;;;;7.42;50.23;99323.67;1713638;83;21137;-79
2021/04/03 16:08:17;;;;;;;7.63;4.53;;;;;;;7.37;50.60;99326.84;1685653;83;20273;-75
2021/04/03 16:10:45;;;;;;;15.50;6.08;;;;;;;7.32;50.38;99327.60;1696976;84;21581;-83
2021/04/03 16:13:14;;;;;;;12.88;5.87;;;;;;;7.26;50.58;99326.43;1702598;83;21161;-83
2021/04/03 16:15:42;;;;;;;12.73;5.37;;;;;;;7.22;50.72;99336.15;1700425;84;21168;-81
2021/04/03 16:18:13;;;;;;;15.43;7.42;;;;;;;7.17;50.84;99331.45;1706636;83;21212;-79
2021/04/03 16:20:42;;;;;;;17.70;7.28;;;;;;;7.15;51.13;99335.50;1713617;83;21169;-83
2021/04/03 16:23:13;;;;;;;12.20;6.10;;;;;;;7.11;51.29;99343.33;1682928;83;21176;-78
2021/04/03 16:25:41;;;;;;;12.35;6.62;;;;;;;7.08;51.30;99345.73;1699079;83;21163;-82
2021/04/03 16:28:10;;;;;;;15.15;7.22;;;;;;;7.04;51.52;99351.67;1669429;84;21197;-78
2021/04/03 16:30:37;;;;;;;16.80;8.13;;;;;;;7.02;51.42;99356.54;1706081;84;21270;-76
2021/04/03 16:33:06;;;;;;;16.73;7.20;;;;;;;6.97;51.74;99342.86;1685082;83;21147;-81
2021/04/03 16:35:34;;;;;;;20.02;8.20;;;;;;;6.93;52.05;99347.68;1685224;85;21140;-82
2021/04/03 16:38:02;;;;;;;16.20;7.65;;;;;;;6.88;52.44;99358.48;1681160;83;21163;-85
2021/04/03 16:40:31;;;;;;;;;;;;;;;6.82;52.58;99359.45;1688076;83;21167;-86
2021/04/03 16:42:59;;;;;;;20.70;8.38;;;;;;;6.77;52.85;99360.20;1702802;83;20253;-85
2021/04/03 16:45:27;;;;;;;21.75;9.70;;;;;;;6.72;52.80;99364.19;1694424;84;21171;-83
2021/04/03 16:47:55;;;;;;;19.25;8.23;;;;;;;6.67;53.06;99369.53;1695484;84;21236;-84
2021/04/03 16:50:24;;;;;;;24.47;9.25;;;;;;;6.63;53.18;99368.36;1713697;83;21137;-84
2021/04/03 16:52:52;;;;;;;;;;;;;;;6.59;53.46;99374.00;1693077;84;21182;-79
2021/04/03 16:55:21;;;;;;;15.45;7.22;;;;;;;6.56;53.48;99384.53;1720035;81;20199;-83
2021/04/03 16:57:49;;;;;;;16.77;8.30;;;;;;;6.46;54.03;99376.19;1665758;84;21202;-80
2021/04/03 17:00:18;;;;;;;19.12;8.85;;;;;;;6.46;54.03;99376.19;1688177;83;21183;-81
2021/04/03 17:02:46;;;;;;;17.42;8.50;;;;;;;6.39;54.06;99372.27;1711700;84;21640;-75
2021/04/03 17:05:14;;;;;;;27.62;8.35;;;;;;;6.33;55.07;99381.38;1692551;82;21172;-77
2021/04/03 17:07:43;;;;;;;27.35;11.35;;;;;;;6.22;55.81;99379.55;1689583;84;21151;-75
2021/04/03 17:10:12;;;;;;;25.10;10.93;;;;;;;6.13;56.33;99380.97;1684859;82;21243;-80
2021/04/03 17:12:42;;;;;;;28.60;11.43;;;;;;;6.06;56.90;99385.20;1684844;84;21603;-78
2021/04/03 17:15:12;;;;;;;24.27;10.10;;;;;;;5.99;58.08;99391.30;1680744;82;21217;-76
2021/04/03 17:17:40;;;;;;;20.43;10.43;;;;;;;5.92;57.82;99388.43;1684772;85;21192;-83
2021/04/03 17:20:16;;;;;;;27.00;11.38;;;;;;;5.87;57.10;99401.34;1687496;83;21239;-79
2021/04/03 17:22:45;;;;;;;27.13;11.20;;;;;;;5.82;57.69;99404.47;1694682;84;21152;-79
2021/04/03 17:25:15;;;;;;;28.60;11.55;;;;;;;5.75;58.12;99408.13;1684814;82;21632;-83
2021/04/03 17:27:44;;;;;;;40.48;11.78;;;;;;;5.71;59.02;99412.39;1684879;85;21171;-81
2021/04/03 17:30:13;;;;;;;20.90;10.05;;;;;;;5.67;59.13;99411.73;1684857;82;21136;-79
2021/04/03 17:32:42;;;;;;;20.27;8.30;;;;;;;5.64;58.76;99414.38;1684777;82;21188;-80
2021/04/03 17:35:13;;;;;;;18.52;8.93;;;;;;;5.62;58.18;99412.44;1684764;84;21136;-78
2021/04/03 17:37:41;;;;;;;21.02;10.35;;;;;;;5.61;58.25;99416.24;1687155;82;21244;-79
2021/04/03 17:40:10;;;;;;;28.80;11.10;;;;;;;5.59;59.39;99413.47;1685597;84;21287;-83
2021/04/03 17:42:38;;;;;;;18.32;10.23;;;;;;;5.50;59.76;99419.77;1664103;83;21176;-79
2021/04/03 17:45:07;;;;;;;37.93;10.60;;;;;;;5.39;59.86;99418.42;1712672;84;21184;-85
2021/04/03 17:47:35;;;;;;;30.57;10.28;;;;;;;5.28;60.72;99421.42;1647470;85;21159;-84
2021/04/03 17:50:05;;;;;;;30.37;11.38;;;;;;;5.20;61.88;99414.98;1685014;84;21207;-84
2021/04/03 17:52:33;;;;;;;22.65;10.75;;;;;;;5.16;61.25;99425.18;1684881;82;21756;-75
2021/04/03 17:55:03;;;;;;;30.45;12.35;;;;;;;5.13;61.48;99427.83;1685039;82;21211;-78
2021/04/03 17:57:31;;;;;;;25.02;11.95;;;;;;;5.10;61.69;99432.36;1684108;82;21173;-79
2021/04/03 18:00:00;;;;;;;30.82;11.85;;;;;;;5.07;60.63;99434.17;1706992;83;21141;-81
2021/04/03 18:02:30;;;;;;;32.10;13.20;;;;;;;5.07;61.89;99435.53;1704396;82;22363;-77
2021/04/03 18:04:58;;;;;;;29.70;13.03;;;;;;;5.05;62.92;99434.95;1715593;83;21631;-77
2021/04/03 18:07:26;;;;;;;24.60;12.18;;;;;;;5.02;62.60;99434.05;1710546;84;21169;-79
2021/04/03 18:09:54;;;;;;;23.92;11.68;;;;;;;5.00;62.65;99439.71;1688503;83;21175;-78
2021/04/03 18:12:22;;;;;;;27.70;12.65;;;;;;;4.98;62.45;99437.73;1713863;84;21149;-77
2021/04/03 18:14:50;;;;;;;36.00;14.20;;;;;;;4.98;62.46;99445.08;1691250;83;21718;-78
2021/04/03 18:17:18;;;;;;;41.92;15.30;;;;;;;4.95;62.85;99440.11;1685217;84;21161;-84
2021/04/03 18:19:49;;;;;;;34.78;14.13;;;;;;;4.92;62.48;99448.70;1691952;83;21306;-79
2021/04/03 18:22:18;;;;;;;41.95;19.45;;;;;;;4.89;63.42;99447.80;1700366;84;21617;-83
2021/04/03 18:24:46;;;;;;;37.73;16.50;;;;;;;4.87;62.98;99449.92;1660717;84;21176;-74
2021/04/03 18:27:14;;;;;;;39.63;13.95;;;;;;;4.82;63.64;99452.50;1689676;84;21299;-76
2021/04/03 18:29:42;;;;;;;37.10;14.58;;;;;;;4.77;63.73;99459.14;1699352;83;21214;-78
2021/04/03 18:32:10;;;;;;;41.65;20.80;;;;;;;4.72;63.97;99459.84;1685166;85;21295;-74
2021/04/03 18:34:38;;;;;;;45.23;18.52;;;;;;;4.69;63.99;99463.53;1708121;82;21295;-79
2021/04/03 18:37:08;;;;;;;41.45;18.48;;;;;;;4.64;64.72;99458.80;1702608;83;21173;-79
2021/04/03 18:39:36;;;;;;;62.35;28.73;;;;;;;4.60;65.32;99465.75;1688314;83;21265;-81
2021/04/03 18:42:06;;;;;;;55.58;23.62;;;;;;;4.56;65.83;99467.77;1679768;84;21338;-76
2021/04/03 18:44:34;;;;;;;47.30;23.07;;;;;;;4.50;65.62;99460.85;1680765;83;21713;-80
2021/04/03 18:47:04;;;;;;;52.58;27.95;;;;;;;4.46;65.70;99462.89;1691687;84;21133;-80
2021/04/03 18:49:33;;;;;;;68.07;28.73;;;;;;;4.40;66.57;99465.98;1694881;83;21101;-83
2021/04/03 18:52:02;;;;;;;;;;;;;;;4.36;66.86;99473.45;1664009;84;21188;-77
2021/04/03 18:54:31;;;;;;;69.03;25.60;;;;;;;4.31;67.40;99470.07;1690503;84;20194;-78
2021/04/03 18:57:00;;;;;;;64.32;25.15;;;;;;;4.27;68.46;99474.82;1656032;85;21147;-76
2021/04/03 18:59:28;;;;;;;62.10;22.42;;;;;;;4.23;68.55;99473.08;1701764;83;21155;-83
2021/04/03 19:01:57;;;;;;;60.30;23.80;;;;;;;4.18;68.51;99477.00;1654295;84;21159;-79
2021/04/03 19:04:24;;;;;;;59.25;24.98;;;;;;;4.14;68.85;99480.39;1687441;84;21260;-77
2021/04/03 19:06:54;;;;;;;70.52;25.32;;;;;;;4.10;69.22;99486.77;1705255;81;21178;-72
2021/04/03 19:09:23;;;;;;;55.98;23.83;;;;;;;4.07;69.30;99484.53;1703059;83;21278;-73
2021/04/03 19:11:50;;;;;;;51.27;21.87;;;;;;;4.00;70.27;99487.02;1690804;83;21390;-71
2021/04/03 19:14:19;;;;;;;52.40;19.60;;;;;;;4.00;70.27;99487.02;1700343;83;21642;-79
2021/04/03 19:16:48;;;;;;;52.95;18.05;;;;;;;3.95;70.34;99489.02;1659598;83;21188;-72
2021/04/03 19:19:15;;;;;;;47.45;18.12;;;;;;;3.91;70.49;99487.83;1712375;82;21259;-80
2021/04/03 19:21:43;;;;;;;42.98;15.30;;;;;;;3.87;69.89;99480.38;1700935;83;21168;-72
2021/04/03 19:24:12;;;;;;;51.10;16.60;;;;;;;3.84;70.54;99487.07;1748091;82;21164;-74
2021/04/03 19:26:40;;;;;;;45.12;17.42;;;;;;;3.80;70.29;99489.91;1710931;83;21932;-72
2021/04/03 19:29:08;;;;;;;43.35;16.65;;;;;;;3.76;70.42;99487.36;1689382;83;21620;-75
2021/04/03 19:31:37;;;;;;;45.05;16.82;;;;;;;3.73;70.58;99491.85;1674284;83;21200;-74
2021/04/03 19:34:05;;;;;;;49.73;17.15;;;;;;;3.70;70.62;99490.42;1697719;83;21196;-79
2021/04/03 19:36:33;;;;;;;42.30;18.25;;;;;;;3.67;70.31;99500.33;1678053;83;21821;-83
2021/04/03 19:39:01;;;;;;;47.10;16.33;;;;;;;3.65;70.56;99498.90;1670898;84;21169;-79
2021/04/03 19:41:29;;;;;;;50.83;18.02;;;;;;;3.62;71.30;99497.98;1712343;83;21243;-80
2021/04/03 19:43:58;;;;;;;47.43;17.10;;;;;;;3.59;71.87;99501.16;1703358;83;21604;-79
2021/04/03 19:46:26;;;;;;;47.38;16.32;;;;;;;3.56;72.65;99504.30;1693468;83;21207;-83
2021/04/03 19:48:56;;;;;;;41.25;17.00;;;;;;;3.51;72.36;99501.44;1698407;83;21693;-82
2021/04/03 19:51:24;;;;;;;52.53;15.63;;;;;;;3.46;72.15;99502.62;1703570;83;21700;-75
2021/04/03 19:53:54;;;;;;;48.40;16.30;;;;;;;3.41;71.76;99509.22;1711090;82;21140;-82
2021/04/03 19:56:22;;;;;;;41.73;18.05;;;;;;;3.38;72.50;99512.36;1666680;83;21641;-80
2021/04/03 19:58:50;;;;;;;45.65;16.87;;;;;;;3.33;72.47;99521.66;1701413;82;21508;-76
2021/04/03 20:01:20;;;;;;;65.63;27.10;;;;;;;3.25;72.33;99524.62;1692421;84;21622;-77
2021/04/03 20:03:49;;;;;;;64.42;26.65;;;;;;;3.20;72.24;99524.77;1723943;82;21128;-77
2021/04/03 20:06:18;;;;;;;49.00;21.23;;;;;;;3.19;72.52;99523.61;1716653;81;21522;-79
2021/04/03 20:08:45;;;;;;;;;;;;;;;3.18;72.92;99525.52;1689643;83;21622;-80
2021/04/03 20:11:15;;;;;;;55.30;23.10;;;;;;;3.14;73.08;99524.28;1700778;82;20202;-80
2021/04/03 20:13:44;;;;;;;56.93;23.70;;;;;;;3.12;73.27;99525.02;1714859;83;21193;-81
2021/04/03 20:16:55;;;;;;;57.30;24.75;;;;;;;3.08;73.84;99519.77;1671982;84;21167;-80
2021/04/03 20:19:26;;;;;;;55.23;24.13;;;;;;;3.05;74.18;99521.55;1711576;82;21680;-81
2021/04/03 20:21:56;;;;;;;58.20;25.03;;;;;;;3.03;74.53;99520.94;1699761;82;21186;-85
2021/04/03 20:24:24;;;;;;;62.15;26.65;;;;;;;3.01;74.77;99523.55;1697727;81;21178;-75
2021/04/03 20:26:53;;;;;;;49.60;18.20;;;;;;;2.99;74.74;99531.03;1696539;83;21184;-82
2021/04/03 20:29:21;;;;;;;46.60;17.48;;;;;;;2.96;74.83;99530.14;1717455;83;21164;-78
2021/04/03 20:31:49;;;;;;;44.88;17.77;;;;;;;2.93;74.86;99528.70;1706430;81;21182;-79
2021/04/03 20:34:17;;;;;;;45.28;17.20;;;;;;;2.91;75.10;99534.02;1713711;83;21203;-83
2021/04/03 20:36:45;;;;;;;37.90;17.23;;;;;;;2.88;75.19;99524.47;1706586;81;21199;-77
2021/04/03 20:39:13;;;;;;;48.55;16.67;;;;;;;2.86;75.31;99525.18;1725232;81;21195;-80
2021/04/03 20:41:40;;;;;;;41.00;17.27;;;;;;;2.84;75.49;99529.98;1713677;83;21224;-84
2021/04/03 20:44:08;;;;;;;44.38;17.75;;;;;;;2.83;75.77;99527.50;1668449;85;21157;-82
2021/04/03 20:46:37;;;;;;;29.05;13.50;;;;;;;2.81;75.20;99530.41;1694490;81;21171;-80
2021/04/03 20:49:05;;;;;;;33.13;14.28;;;;;;;2.79;75.80;99528.45;1709212;83;21231;-82
2021/04/03 20:51:34;;;;;;;44.07;14.10;;;;;;;2.77;75.75;99525.14;1709494;82;21674;-81
2021/04/03 20:54:02;;;;;;;38.02;13.13;;;;;;;2.74;76.23;99520.67;1705808;81;21202;-76
2021/04/03 20:56:30;;;;;;;41.60;14.20;;;;;;;2.73;76.14;99525.79;1683090;82;21623;-73
2021/04/03 20:58:59;;;;;;;;;;;;;;;2.69;76.26;99524.03;1670209;84;21154;-76
2021/04/03 21:01:26;;;;;;;45.20;15.67;;;;;;;2.68;76.93;99525.09;1694960;82;20193;-80
2021/04/03 21:03:55;;;;;;;33.20;15.67;;;;;;;2.65;76.92;99530.92;1696156;82;21160;-79